createdAt,value
2019-01-19T00:00:52.160Z,1012.52
2019-01-19T00:01:52.151Z,1012.52
2019-01-19T00:02:52.117Z,1012.46
2019-01-19T00:03:52.109Z,1012.47
2019-01-19T00:04:55.111Z,1012.49
2019-01-19T00:05:52.088Z,1012.49
2019-01-19T00:06:52.144Z,1012.44
2019-01-19T00:07:52.067Z,1012.43
2019-01-19T00:08:52.053Z,1012.42
2019-01-19T00:09:52.076Z,1012.40
2019-01-19T00:10:52.039Z,1012.43
2019-01-19T00:11:52.059Z,1012.42
2019-01-19T00:12:52.145Z,1012.39
2019-01-19T00:13:52.017Z,1012.43
2019-01-19T00:14:52.028Z,1012.40
2019-01-19T00:15:51.982Z,1012.38
2019-01-19T00:16:51.975Z,1012.41
2019-01-19T00:17:52.001Z,1012.41
2019-01-19T00:18:51.945Z,1012.39
2019-01-19T00:19:51.950Z,1012.38
2019-01-19T00:20:51.938Z,1012.40
2019-01-19T00:21:51.916Z,1012.37
2019-01-19T00:22:51.908Z,1012.34
2019-01-19T00:23:51.887Z,1012.35
2019-01-19T00:24:51.884Z,1012.37
2019-01-19T00:25:51.875Z,1012.35
2019-01-19T00:26:51.857Z,1012.35
2019-01-19T00:27:51.873Z,1012.38
2019-01-19T00:28:51.834Z,1012.35
2019-01-19T00:29:51.826Z,1012.33
2019-01-19T00:30:51.826Z,1012.33
2019-01-19T00:31:51.814Z,1012.30
2019-01-19T00:32:51.807Z,1012.31
2019-01-19T00:33:51.895Z,1012.26
2019-01-19T00:34:51.783Z,1012.30
2019-01-19T00:35:51.764Z,1012.26
2019-01-19T00:36:51.765Z,1012.25
2019-01-19T00:37:51.762Z,1012.28
2019-01-19T00:38:51.739Z,1012.26
2019-01-19T00:39:51.732Z,1012.22
2019-01-19T00:40:51.777Z,1012.25
2019-01-19T00:41:51.696Z,1012.31
2019-01-19T00:42:51.718Z,1012.24
2019-01-19T00:43:51.674Z,1012.26
2019-01-19T00:44:51.666Z,1012.23
2019-01-19T00:45:51.659Z,1012.26
2019-01-19T00:46:51.725Z,1012.24
2019-01-19T00:47:51.687Z,1012.24
2019-01-19T00:48:51.633Z,1012.22
2019-01-19T00:49:51.653Z,1012.20
2019-01-19T00:50:51.600Z,1012.21
2019-01-19T00:51:51.609Z,1012.20
2019-01-19T00:52:51.590Z,1012.24
2019-01-19T00:53:51.567Z,1012.22
2019-01-19T00:54:51.552Z,1012.22
2019-01-19T00:55:51.543Z,1012.26
2019-01-19T00:56:53.056Z,1012.25
2019-01-19T00:57:51.573Z,1012.23
2019-01-19T00:58:51.515Z,1012.22
2019-01-19T00:59:51.509Z,1012.20
2019-01-19T01:00:51.500Z,1012.24
2019-01-19T01:01:51.483Z,1012.21
2019-01-19T01:02:51.484Z,1012.17
2019-01-19T01:03:51.499Z,1012.20
2019-01-19T01:04:51.449Z,1012.24
2019-01-19T01:05:51.431Z,1012.21
2019-01-19T01:06:51.428Z,1012.20
2019-01-19T01:07:51.426Z,1012.20
2019-01-19T01:08:51.638Z,1012.18
2019-01-19T01:09:51.405Z,1012.15
2019-01-19T01:10:51.376Z,1012.18
2019-01-19T01:11:51.369Z,1012.23
2019-01-19T01:12:51.379Z,1012.23
2019-01-19T01:13:51.440Z,1012.20
2019-01-19T01:14:51.334Z,1012.17
2019-01-19T01:15:53.009Z,1012.18
2019-01-19T01:16:51.329Z,1012.20
2019-01-19T01:17:51.314Z,1012.17
2019-01-19T01:18:51.291Z,1012.21
2019-01-19T01:19:51.292Z,1012.21
2019-01-19T01:20:51.272Z,1012.22
2019-01-19T01:21:51.333Z,1012.22
2019-01-19T01:22:51.261Z,1012.23
2019-01-19T01:23:51.283Z,1012.27
2019-01-19T01:24:51.224Z,1012.21
2019-01-19T01:25:51.213Z,1012.24
2019-01-19T01:26:51.207Z,1012.20
2019-01-19T01:27:51.211Z,1012.22
2019-01-19T01:28:51.215Z,1012.23
2019-01-19T01:29:51.174Z,1012.26
2019-01-19T01:30:51.163Z,1012.23
2019-01-19T01:31:51.155Z,1012.26
2019-01-19T01:32:51.190Z,1012.24
2019-01-19T01:33:51.134Z,1012.22
2019-01-19T01:34:51.117Z,1012.26
2019-01-19T01:35:51.114Z,1012.31
2019-01-19T01:36:51.112Z,1012.23
2019-01-19T01:37:51.108Z,1012.24
2019-01-19T01:38:51.087Z,1012.26
2019-01-19T01:39:51.110Z,1012.25
2019-01-19T01:40:51.128Z,1012.22
2019-01-19T01:41:51.043Z,1012.23
2019-01-19T01:42:51.050Z,1012.26
2019-01-19T01:43:51.043Z,1012.25
2019-01-19T01:44:51.017Z,1012.24
2019-01-19T01:45:51.006Z,1012.24
2019-01-19T01:46:50.988Z,1012.22
2019-01-19T01:47:50.998Z,1012.21
2019-01-19T01:48:50.974Z,1012.23
2019-01-19T01:49:50.963Z,1012.23
2019-01-19T01:50:50.952Z,1012.19
2019-01-19T01:51:50.942Z,1012.19
2019-01-19T01:52:50.942Z,1012.17
2019-01-19T01:53:50.913Z,1012.18
2019-01-19T01:54:50.903Z,1012.19
2019-01-19T01:55:50.905Z,1012.18
2019-01-19T01:56:50.893Z,1012.13
2019-01-19T01:57:50.872Z,1012.15
2019-01-19T01:58:50.867Z,1012.09
2019-01-19T01:59:50.856Z,1012.10
2019-01-19T02:00:50.857Z,1012.09
2019-01-19T02:01:50.878Z,1012.11
2019-01-19T02:02:50.829Z,1012.09
2019-01-19T02:03:50.820Z,1012.07
2019-01-19T02:04:50.801Z,1012.05
2019-01-19T02:05:50.786Z,1012.05
2019-01-19T02:06:50.784Z,1012.05
2019-01-19T02:07:50.765Z,1012.04
2019-01-19T02:08:50.755Z,1012.02
2019-01-19T02:09:50.741Z,1012.05
2019-01-19T02:10:50.729Z,1012.03
2019-01-19T02:11:50.729Z,1012.03
2019-01-19T02:12:50.717Z,1012.01
2019-01-19T02:13:50.717Z,1012.01
2019-01-19T02:14:50.697Z,1012.01
2019-01-19T02:15:50.747Z,1011.99
2019-01-19T02:16:50.671Z,1012.00
2019-01-19T02:17:50.656Z,1011.98
2019-01-19T02:18:50.685Z,1012.01
2019-01-19T02:19:50.654Z,1011.99
2019-01-19T02:20:50.639Z,1012.01
2019-01-19T02:21:50.612Z,1012.00
2019-01-19T02:22:50.606Z,1011.98
2019-01-19T02:23:50.612Z,1011.96
2019-01-19T02:24:50.578Z,1011.94
2019-01-19T02:25:50.582Z,1011.94
2019-01-19T02:26:50.579Z,1011.96
2019-01-19T02:27:50.546Z,1011.95
2019-01-19T02:28:50.550Z,1011.94
2019-01-19T02:29:50.529Z,1011.93
2019-01-19T02:30:50.530Z,1011.95
2019-01-19T02:31:50.509Z,1011.88
2019-01-19T02:32:50.674Z,1011.91
2019-01-19T02:33:50.522Z,1011.84
2019-01-19T02:34:50.478Z,1011.84
2019-01-19T02:35:50.539Z,1011.87
2019-01-19T02:36:50.520Z,1011.84
2019-01-19T02:37:50.448Z,1011.85
2019-01-19T02:38:50.440Z,1011.84
2019-01-19T02:39:50.447Z,1011.80
2019-01-19T02:40:50.413Z,1011.80
2019-01-19T02:41:50.405Z,1011.82
2019-01-19T02:42:50.412Z,1011.82
2019-01-19T02:43:50.405Z,1011.79
2019-01-19T02:44:50.390Z,1011.77
2019-01-19T02:45:50.358Z,1011.77
2019-01-19T02:46:50.341Z,1011.72
2019-01-19T02:47:50.329Z,1011.73
2019-01-19T02:48:50.341Z,1011.71
2019-01-19T02:49:50.325Z,1011.71
2019-01-19T02:50:50.310Z,1011.70
2019-01-19T02:51:50.309Z,1011.67
2019-01-19T02:52:50.281Z,1011.70
2019-01-19T02:53:50.280Z,1011.67
2019-01-19T02:54:50.263Z,1011.66
2019-01-19T02:55:50.259Z,1011.72
2019-01-19T02:56:50.438Z,1011.67
2019-01-19T02:57:50.227Z,1011.67
2019-01-19T02:58:50.235Z,1011.63
2019-01-19T02:59:50.205Z,1011.62
2019-01-19T03:00:50.196Z,1011.60
2019-01-19T03:01:50.182Z,1011.61
2019-01-19T03:02:50.167Z,1011.61
2019-01-19T03:03:50.178Z,1011.56
2019-01-19T03:04:50.158Z,1011.65
2019-01-19T03:05:56.137Z,1011.59
2019-01-19T03:06:50.160Z,1011.64
2019-01-19T03:07:50.113Z,1011.60
2019-01-19T03:08:50.134Z,1011.60
2019-01-19T03:09:50.174Z,1011.57
2019-01-19T03:10:50.132Z,1011.57
2019-01-19T03:11:50.069Z,1011.57
2019-01-19T03:12:50.068Z,1011.54
2019-01-19T03:13:50.082Z,1011.57
2019-01-19T03:14:50.077Z,1011.56
2019-01-19T03:15:50.031Z,1011.53
2019-01-19T03:16:50.022Z,1011.54
2019-01-19T03:17:50.048Z,1011.58
2019-01-19T03:18:50.128Z,1011.55
2019-01-19T03:19:49.993Z,1011.53
2019-01-19T03:20:49.980Z,1011.55
2019-01-19T03:21:49.972Z,1011.52
2019-01-19T03:22:49.960Z,1011.50
2019-01-19T03:23:49.957Z,1011.53
2019-01-19T03:24:49.939Z,1011.49
2019-01-19T03:25:49.927Z,1011.43
2019-01-19T03:26:49.907Z,1011.49
2019-01-19T03:27:49.957Z,1011.51
2019-01-19T03:28:49.911Z,1011.48
2019-01-19T03:29:49.888Z,1011.47
2019-01-19T03:30:49.930Z,1011.42
2019-01-19T03:31:49.869Z,1011.44
2019-01-19T03:32:49.869Z,1011.44
2019-01-19T03:33:49.852Z,1011.38
2019-01-19T03:34:49.830Z,1011.41
2019-01-19T03:35:49.813Z,1011.39
2019-01-19T03:36:49.855Z,1011.34
2019-01-19T03:37:49.869Z,1011.40
2019-01-19T03:38:49.816Z,1011.38
2019-01-19T03:39:49.774Z,1011.37
2019-01-19T03:40:49.766Z,1011.42
2019-01-19T03:41:49.754Z,1011.40
2019-01-19T03:42:49.751Z,1011.37
2019-01-19T03:43:49.742Z,1011.39
2019-01-19T03:44:49.742Z,1011.34
2019-01-19T03:45:49.716Z,1011.32
2019-01-19T03:46:49.706Z,1011.28
2019-01-19T03:47:49.697Z,1011.29
2019-01-19T03:48:49.780Z,1011.30
2019-01-19T03:49:49.691Z,1011.29
2019-01-19T03:50:49.656Z,1011.31
2019-01-19T03:51:49.638Z,1011.29
2019-01-19T03:52:49.632Z,1011.29
2019-01-19T03:53:49.628Z,1011.31
2019-01-19T03:54:49.639Z,1011.26
2019-01-19T03:55:49.605Z,1011.25
2019-01-19T03:56:49.601Z,1011.25
2019-01-19T03:57:49.578Z,1011.23
2019-01-19T03:58:49.635Z,1011.25
2019-01-19T03:59:49.569Z,1011.26
2019-01-19T04:00:49.554Z,1011.29
2019-01-19T04:01:49.530Z,1011.22
2019-01-19T04:02:49.555Z,1011.23
2019-01-19T04:03:49.609Z,1011.25
2019-01-19T04:04:49.529Z,1011.21
2019-01-19T04:05:49.531Z,1011.21
2019-01-19T04:06:52.855Z,1011.20
2019-01-19T04:07:49.768Z,1011.18
2019-01-19T04:08:49.462Z,1011.22
2019-01-19T04:09:49.474Z,1011.19
2019-01-19T04:10:49.439Z,1011.21
2019-01-19T04:11:49.432Z,1011.21
2019-01-19T04:12:49.418Z,1011.19
2019-01-19T04:13:49.402Z,1011.19
2019-01-19T04:14:50.926Z,1011.15
2019-01-19T04:15:49.391Z,1011.14
2019-01-19T04:16:49.389Z,1011.15
2019-01-19T04:17:49.357Z,1011.11
2019-01-19T04:18:49.368Z,1011.12
2019-01-19T04:19:49.355Z,1011.11
2019-01-19T04:20:49.341Z,1011.07
2019-01-19T04:21:49.395Z,1011.08
2019-01-19T04:22:49.331Z,1011.05
2019-01-19T04:23:49.300Z,1011.06
2019-01-19T04:24:49.300Z,1011.06
2019-01-19T04:25:49.278Z,1011.05
2019-01-19T04:26:49.258Z,1011.07
2019-01-19T04:27:49.262Z,1011.08
2019-01-19T04:28:49.248Z,1011.09
2019-01-19T04:29:49.241Z,1011.08
2019-01-19T04:30:49.691Z,1011.08
2019-01-19T04:31:49.205Z,1011.09
2019-01-19T04:32:49.205Z,1011.11
2019-01-19T04:33:49.184Z,1011.05
2019-01-19T04:34:49.232Z,1011.03
2019-01-19T04:35:49.175Z,1011.06
2019-01-19T04:36:49.152Z,1011.07
2019-01-19T04:37:49.139Z,1011.04
2019-01-19T04:38:49.163Z,1011.05
2019-01-19T04:39:49.131Z,1011.03
2019-01-19T04:40:49.111Z,1011.04
2019-01-19T04:41:49.198Z,1011.00
2019-01-19T04:42:49.091Z,1011.01
2019-01-19T04:43:49.078Z,1011.03
2019-01-19T04:44:49.075Z,1011.01
2019-01-19T04:45:49.113Z,1010.97
2019-01-19T04:46:49.038Z,1010.99
2019-01-19T04:47:49.028Z,1010.98
2019-01-19T04:48:49.023Z,1011.03
2019-01-19T04:49:49.023Z,1011.02
2019-01-19T04:50:49.000Z,1011.03
2019-01-19T04:51:48.990Z,1011.03
2019-01-19T04:52:48.978Z,1010.98
2019-01-19T04:53:48.971Z,1010.98
2019-01-19T04:54:48.975Z,1011.00
2019-01-19T04:55:48.950Z,1011.01
2019-01-19T04:56:48.941Z,1011.03
2019-01-19T04:57:48.948Z,1010.97
2019-01-19T04:58:48.940Z,1010.95
2019-01-19T04:59:48.911Z,1010.95
2019-01-19T05:00:48.972Z,1010.99
2019-01-19T05:01:48.895Z,1011.00
2019-01-19T05:02:48.874Z,1010.99
2019-01-19T05:03:48.869Z,1010.95
2019-01-19T05:04:48.852Z,1010.97
2019-01-19T05:05:48.868Z,1010.99
2019-01-19T05:06:48.835Z,1010.96
2019-01-19T05:07:48.834Z,1010.96
2019-01-19T05:08:48.805Z,1010.98
2019-01-19T05:09:48.800Z,1011.01
2019-01-19T05:10:48.810Z,1010.92
2019-01-19T05:11:48.786Z,1010.95
2019-01-19T05:12:48.763Z,1010.96
2019-01-19T05:13:48.765Z,1010.97
2019-01-19T05:14:48.740Z,1010.96
2019-01-19T05:15:48.748Z,1010.96
2019-01-19T05:16:48.726Z,1010.95
2019-01-19T05:17:48.713Z,1010.94
2019-01-19T05:18:48.746Z,1010.92
2019-01-19T05:19:48.690Z,1010.93
2019-01-19T05:20:48.699Z,1010.89
2019-01-19T05:21:48.667Z,1010.92
2019-01-19T05:22:48.661Z,1010.91
2019-01-19T05:23:48.646Z,1010.90
2019-01-19T05:24:48.639Z,1010.90
2019-01-19T05:25:48.715Z,1010.91
2019-01-19T05:26:48.634Z,1010.92
2019-01-19T05:27:48.660Z,1010.89
2019-01-19T05:28:48.595Z,1010.85
2019-01-19T05:29:48.593Z,1010.90
2019-01-19T05:30:48.602Z,1010.92
2019-01-19T05:31:48.567Z,1010.89
2019-01-19T05:32:48.554Z,1010.88
2019-01-19T05:33:48.537Z,1010.88
2019-01-19T05:34:48.536Z,1010.90
2019-01-19T05:35:48.531Z,1010.89
2019-01-19T05:36:48.508Z,1010.90
2019-01-19T05:37:48.523Z,1010.95
2019-01-19T05:38:48.494Z,1010.95
2019-01-19T05:39:48.476Z,1010.89
2019-01-19T05:40:48.535Z,1010.89
2019-01-19T05:41:48.461Z,1010.88
2019-01-19T05:42:48.445Z,1010.89
2019-01-19T05:43:48.426Z,1010.88
2019-01-19T05:44:48.427Z,1010.86
2019-01-19T05:45:48.428Z,1010.86
2019-01-19T05:47:47.408Z,1010.83
2019-01-19T05:48:48.394Z,1010.85
2019-01-19T05:49:48.423Z,1010.81
2019-01-19T05:50:48.371Z,1010.86
2019-01-19T05:51:48.342Z,1010.83
2019-01-19T05:52:48.345Z,1010.78
2019-01-19T05:53:48.322Z,1010.79
2019-01-19T05:54:48.313Z,1010.82
2019-01-19T05:55:48.324Z,1010.82
2019-01-19T05:56:48.303Z,1010.85
2019-01-19T05:57:48.375Z,1010.83
2019-01-19T05:58:48.282Z,1010.81
2019-01-19T05:59:48.254Z,1010.82
2019-01-19T06:00:48.275Z,1010.79
2019-01-19T06:01:48.231Z,1010.83
2019-01-19T06:02:48.229Z,1010.82
2019-01-19T06:03:48.263Z,1010.81
2019-01-19T06:04:48.201Z,1010.79
2019-01-19T06:05:48.202Z,1010.82
2019-01-19T06:06:48.193Z,1010.82
2019-01-19T06:07:48.229Z,1010.79
2019-01-19T06:08:48.205Z,1010.79
2019-01-19T06:09:48.151Z,1010.76
2019-01-19T06:10:48.152Z,1010.78
2019-01-19T06:11:48.127Z,1010.78
2019-01-19T06:12:48.111Z,1010.78
2019-01-19T06:13:48.429Z,1010.75
2019-01-19T06:14:48.124Z,1010.76
2019-01-19T06:15:48.107Z,1010.72
2019-01-19T06:16:48.078Z,1010.71
2019-01-19T06:17:48.119Z,1010.75
2019-01-19T06:18:48.048Z,1010.69
2019-01-19T06:19:48.039Z,1010.73
2019-01-19T06:20:48.085Z,1010.70
2019-01-19T06:21:48.036Z,1010.72
2019-01-19T06:22:48.003Z,1010.70
2019-01-19T06:23:47.998Z,1010.69
2019-01-19T06:24:47.987Z,1010.70
2019-01-19T06:25:47.996Z,1010.72
2019-01-19T06:26:47.980Z,1010.70
2019-01-19T06:27:47.976Z,1010.69
2019-01-19T06:28:47.962Z,1010.71
2019-01-19T06:29:47.929Z,1010.71
2019-01-19T06:30:48.553Z,1010.69
2019-01-19T06:31:47.925Z,1010.71
2019-01-19T06:32:47.903Z,1010.70
2019-01-19T06:33:47.891Z,1010.69
2019-01-19T06:34:47.890Z,1010.68
2019-01-19T06:35:47.868Z,1010.71
2019-01-19T06:36:54.813Z,1010.69
2019-01-19T06:37:47.862Z,1010.70
2019-01-19T06:38:47.836Z,1010.68
2019-01-19T06:39:47.830Z,1010.66
2019-01-19T06:40:47.817Z,1010.65
2019-01-19T06:41:47.801Z,1010.67
2019-01-19T06:42:47.809Z,1010.71
2019-01-19T06:43:47.774Z,1010.65
2019-01-19T06:44:47.853Z,1010.65
2019-01-19T06:45:47.757Z,1010.66
2019-01-19T06:46:47.762Z,1010.67
2019-01-19T06:47:47.729Z,1010.70
2019-01-19T06:48:47.722Z,1010.67
2019-01-19T06:49:47.709Z,1010.68
2019-01-19T06:50:47.704Z,1010.70
2019-01-19T06:51:47.706Z,1010.66
2019-01-19T06:52:47.678Z,1010.65
2019-01-19T06:53:47.670Z,1010.68
2019-01-19T06:54:47.666Z,1010.67
2019-01-19T06:55:47.644Z,1010.64
2019-01-19T06:56:47.654Z,1010.67
2019-01-19T06:57:47.629Z,1010.67
2019-01-19T06:58:47.614Z,1010.69
2019-01-19T06:59:47.665Z,1010.64
2019-01-19T07:00:47.600Z,1010.71
2019-01-19T07:01:47.598Z,1010.66
2019-01-19T07:02:47.577Z,1010.67
2019-01-19T07:03:47.554Z,1010.66
2019-01-19T07:04:47.548Z,1010.70
2019-01-19T07:05:49.298Z,1010.66
2019-01-19T07:06:47.556Z,1010.68
2019-01-19T07:07:47.556Z,1010.67
2019-01-19T07:08:47.512Z,1010.65
2019-01-19T07:09:47.495Z,1010.71
2019-01-19T07:10:47.488Z,1010.69
2019-01-19T07:11:47.485Z,1010.71
2019-01-19T07:12:47.483Z,1010.71
2019-01-19T07:13:47.449Z,1010.72
2019-01-19T07:14:47.439Z,1010.73
2019-01-19T07:15:47.476Z,1010.73
2019-01-19T07:16:47.448Z,1010.75
2019-01-19T07:17:49.026Z,1010.74
2019-01-19T07:18:47.393Z,1010.75
2019-01-19T07:19:49.279Z,1010.78
2019-01-19T07:20:47.372Z,1010.76
2019-01-19T07:21:47.422Z,1010.76
2019-01-19T07:22:47.356Z,1010.73
2019-01-19T07:23:47.349Z,1010.70
2019-01-19T07:24:47.329Z,1010.72
2019-01-19T07:25:47.313Z,1010.72
2019-01-19T07:26:47.318Z,1010.76
2019-01-19T07:27:47.299Z,1010.74
2019-01-19T07:28:47.286Z,1010.74
2019-01-19T07:29:47.271Z,1010.75
2019-01-19T07:30:47.280Z,1010.74
2019-01-19T07:31:47.275Z,1010.73
2019-01-19T07:32:47.246Z,1010.77
2019-01-19T07:33:47.230Z,1010.77
2019-01-19T07:34:47.216Z,1010.76
2019-01-19T07:35:47.227Z,1010.78
2019-01-19T07:36:47.256Z,1010.77
2019-01-19T07:37:47.181Z,1010.75
2019-01-19T07:38:47.181Z,1010.73
2019-01-19T07:39:47.162Z,1010.76
2019-01-19T07:40:47.160Z,1010.72
2019-01-19T07:41:47.158Z,1010.74
2019-01-19T07:42:47.134Z,1010.70
2019-01-19T07:43:47.119Z,1010.74
2019-01-19T07:44:47.105Z,1010.74
2019-01-19T07:45:47.130Z,1010.76
2019-01-19T07:46:47.106Z,1010.76
2019-01-19T07:47:47.077Z,1010.78
2019-01-19T07:48:47.085Z,1010.77
2019-01-19T07:49:47.052Z,1010.81
2019-01-19T07:50:47.060Z,1010.80
2019-01-19T07:51:47.035Z,1010.76
2019-01-19T07:52:47.051Z,1010.82
2019-01-19T07:53:47.011Z,1010.78
2019-01-19T07:54:47.004Z,1010.78
2019-01-19T07:55:46.988Z,1010.81
2019-01-19T07:56:46.980Z,1010.82
2019-01-19T07:57:46.984Z,1010.78
2019-01-19T07:58:46.957Z,1010.81
2019-01-19T07:59:46.961Z,1010.81
2019-01-19T08:00:46.932Z,1010.87
2019-01-19T08:01:46.934Z,1010.86
2019-01-19T08:02:46.942Z,1010.88
2019-01-19T08:03:46.899Z,1010.86
2019-01-19T08:04:46.890Z,1010.90
2019-01-19T08:05:46.886Z,1010.93
2019-01-19T08:06:46.883Z,1010.89
2019-01-19T08:07:46.873Z,1010.97
2019-01-19T08:08:46.858Z,1010.92
2019-01-19T08:09:46.836Z,1010.90
2019-01-19T08:10:46.840Z,1010.87
2019-01-19T08:11:46.812Z,1010.90
2019-01-19T08:12:46.883Z,1010.89
2019-01-19T08:13:46.801Z,1010.96
2019-01-19T08:14:46.781Z,1010.89
2019-01-19T08:15:46.774Z,1010.93
2019-01-19T08:16:46.760Z,1010.97
2019-01-19T08:17:46.762Z,1010.98
2019-01-19T08:18:46.749Z,1010.97
2019-01-19T08:19:46.759Z,1010.98
2019-01-19T08:20:46.720Z,1010.97
2019-01-19T08:21:46.712Z,1011.01
2019-01-19T08:22:46.714Z,1011.00
2019-01-19T08:23:46.687Z,1010.98
2019-01-19T08:24:47.431Z,1010.97
2019-01-19T08:25:46.697Z,1011.04
2019-01-19T08:26:46.665Z,1011.04
2019-01-19T08:27:46.676Z,1011.00
2019-01-19T08:28:46.631Z,1011.00
2019-01-19T08:29:46.628Z,1011.03
2019-01-19T08:30:46.612Z,1010.97
2019-01-19T08:31:46.650Z,1010.98
2019-01-19T08:32:46.608Z,1010.95
2019-01-19T08:33:46.587Z,1011.02
2019-01-19T08:34:46.697Z,1011.01
2019-01-19T08:35:46.552Z,1011.04
2019-01-19T08:36:46.582Z,1010.99
2019-01-19T08:37:46.576Z,1010.97
2019-01-19T08:38:46.519Z,1010.96
2019-01-19T08:39:46.514Z,1010.92
2019-01-19T08:40:46.495Z,1010.90
2019-01-19T08:41:46.485Z,1010.94
2019-01-19T08:42:46.543Z,1010.86
2019-01-19T08:43:46.465Z,1010.91
2019-01-19T08:44:46.493Z,1010.91
2019-01-19T08:45:46.479Z,1010.86
2019-01-19T08:46:46.438Z,1010.89
2019-01-19T08:47:46.454Z,1010.86
2019-01-19T08:48:46.418Z,1010.83
2019-01-19T08:49:46.417Z,1010.84
2019-01-19T08:50:46.407Z,1010.85
2019-01-19T08:51:46.390Z,1010.84
2019-01-19T08:52:47.530Z,1010.85
2019-01-19T08:53:46.441Z,1010.85
2019-01-19T08:54:46.352Z,1010.83
2019-01-19T08:55:46.347Z,1010.83
2019-01-19T08:56:46.331Z,1010.86
2019-01-19T08:57:46.329Z,1010.88
2019-01-19T08:58:46.301Z,1010.85
2019-01-19T08:59:46.291Z,1010.86
2019-01-19T09:00:46.322Z,1010.84
2019-01-19T09:01:46.509Z,1010.89
2019-01-19T09:02:46.292Z,1010.86
2019-01-19T09:03:46.251Z,1010.87
2019-01-19T09:04:46.240Z,1010.88
2019-01-19T09:05:46.221Z,1010.84
2019-01-19T09:06:46.231Z,1010.85
2019-01-19T09:07:46.248Z,1010.79
2019-01-19T09:08:46.202Z,1010.83
2019-01-19T09:09:46.180Z,1010.85
2019-01-19T09:10:46.177Z,1010.82
2019-01-19T09:11:46.165Z,1010.79
2019-01-19T09:12:46.173Z,1010.81
2019-01-19T09:13:46.145Z,1010.77
2019-01-19T09:14:46.130Z,1010.79
2019-01-19T09:15:46.121Z,1010.78
2019-01-19T09:16:46.114Z,1010.75
2019-01-19T09:17:46.114Z,1010.76
2019-01-19T09:18:46.085Z,1010.75
2019-01-19T09:19:46.121Z,1010.72
2019-01-19T09:20:46.070Z,1010.73
2019-01-19T09:21:46.101Z,1010.77
2019-01-19T09:22:46.111Z,1010.76
2019-01-19T09:23:46.033Z,1010.75
2019-01-19T09:24:46.133Z,1010.74
2019-01-19T09:25:46.008Z,1010.79
2019-01-19T09:26:46.004Z,1010.76
2019-01-19T09:27:45.999Z,1010.76
2019-01-19T09:28:45.980Z,1010.78
2019-01-19T09:29:45.983Z,1010.79
2019-01-19T09:30:46.025Z,1010.77
2019-01-19T09:31:45.949Z,1010.75
2019-01-19T09:32:45.929Z,1010.75
2019-01-19T09:33:46.016Z,1010.74
2019-01-19T09:34:45.905Z,1010.79
2019-01-19T09:35:45.949Z,1010.77
2019-01-19T09:36:45.888Z,1010.76
2019-01-19T09:37:46.927Z,1010.81
2019-01-19T09:38:45.879Z,1010.77
2019-01-19T09:39:45.858Z,1010.79
2019-01-19T09:40:45.844Z,1010.81
2019-01-19T09:41:45.838Z,1010.80
2019-01-19T09:42:45.821Z,1010.81
2019-01-19T09:43:46.315Z,1010.79
2019-01-19T09:44:45.846Z,1010.80
2019-01-19T09:45:45.803Z,1010.83
2019-01-19T09:46:45.818Z,1010.83
2019-01-19T09:47:45.770Z,1010.82
2019-01-19T09:48:46.914Z,1010.82
2019-01-19T09:49:45.741Z,1010.87
2019-01-19T09:50:45.735Z,1010.85
2019-01-19T09:51:45.723Z,1010.87
2019-01-19T09:52:45.728Z,1010.87
2019-01-19T09:53:45.715Z,1010.85
2019-01-19T09:54:45.687Z,1010.87
2019-01-19T09:55:45.684Z,1010.86
2019-01-19T09:56:45.663Z,1010.82
2019-01-19T09:57:45.660Z,1010.84
2019-01-19T09:58:46.619Z,1010.88
2019-01-19T09:59:45.639Z,1010.79
2019-01-19T10:00:45.938Z,1010.77
2019-01-19T10:01:46.596Z,1010.82
2019-01-19T10:02:45.609Z,1010.78
2019-01-19T10:03:45.627Z,1010.78
2019-01-19T10:04:45.581Z,1010.75
2019-01-19T10:05:45.580Z,1010.77
2019-01-19T10:06:45.563Z,1010.73
2019-01-19T10:07:48.594Z,1010.73
2019-01-19T10:08:45.571Z,1010.72
2019-01-19T10:09:45.598Z,1010.72
2019-01-19T10:10:45.557Z,1010.73
2019-01-19T10:11:45.502Z,1010.68
2019-01-19T10:12:45.498Z,1010.72
2019-01-19T10:13:45.512Z,1010.68
2019-01-19T10:14:45.485Z,1010.68
2019-01-19T10:15:45.459Z,1010.70
2019-01-19T10:16:45.459Z,1010.69
2019-01-19T10:17:45.449Z,1010.67
2019-01-19T10:18:45.445Z,1010.63
2019-01-19T10:19:45.412Z,1010.61
2019-01-19T10:20:45.483Z,1010.64
2019-01-19T10:21:45.394Z,1010.63
2019-01-19T10:22:45.684Z,1010.62
2019-01-19T10:23:45.952Z,1010.61
2019-01-19T10:24:45.360Z,1010.58
2019-01-19T10:25:45.353Z,1010.59
2019-01-19T10:26:45.341Z,1010.54
2019-01-19T10:27:45.334Z,1010.53
2019-01-19T10:28:45.333Z,1010.56
2019-01-19T10:29:45.310Z,1010.51
2019-01-19T10:30:45.292Z,1010.51
2019-01-19T10:31:45.282Z,1010.54
2019-01-19T10:32:45.381Z,1010.53
2019-01-19T10:33:45.289Z,1010.50
2019-01-19T10:34:45.258Z,1010.51
2019-01-19T10:35:45.244Z,1010.49
2019-01-19T10:36:45.232Z,1010.44
2019-01-19T10:37:45.215Z,1010.50
2019-01-19T10:38:45.227Z,1010.45
2019-01-19T10:39:45.205Z,1010.43
2019-01-19T10:40:45.192Z,1010.42
2019-01-19T10:41:45.177Z,1010.39
2019-01-19T10:42:45.199Z,1010.33
2019-01-19T10:43:45.167Z,1010.32
2019-01-19T10:44:45.144Z,1010.27
2019-01-19T10:45:45.137Z,1010.29
2019-01-19T10:46:45.131Z,1010.27
2019-01-19T10:47:45.115Z,1010.26
2019-01-19T10:48:45.122Z,1010.17
2019-01-19T10:49:45.138Z,1010.20
2019-01-19T10:50:45.092Z,1010.21
2019-01-19T10:51:45.073Z,1010.16
2019-01-19T10:52:45.071Z,1010.18
2019-01-19T10:53:45.043Z,1010.15
2019-01-19T10:54:45.087Z,1010.13
2019-01-19T10:55:45.022Z,1010.11
2019-01-19T10:56:45.019Z,1010.11
2019-01-19T10:57:45.049Z,1010.07
2019-01-19T10:58:44.998Z,1010.05
2019-01-19T10:59:44.984Z,1010.06
2019-01-19T11:00:44.971Z,1010.00
2019-01-19T11:01:44.956Z,1009.96
2019-01-19T11:02:44.959Z,1009.99
2019-01-19T11:03:44.941Z,1009.94
2019-01-19T11:04:44.928Z,1009.97
2019-01-19T11:05:44.915Z,1009.94
2019-01-19T11:06:44.910Z,1009.96
2019-01-19T11:07:44.922Z,1009.87
2019-01-19T11:08:44.884Z,1009.90
2019-01-19T11:09:44.897Z,1009.87
2019-01-19T11:10:44.854Z,1009.88
2019-01-19T11:11:44.907Z,1009.82
2019-01-19T11:12:44.837Z,1009.87
2019-01-19T11:13:44.828Z,1009.80
2019-01-19T11:14:44.841Z,1009.83
2019-01-19T11:15:44.819Z,1009.83
2019-01-19T11:16:44.793Z,1009.80
2019-01-19T11:17:44.781Z,1009.77
2019-01-19T11:18:44.768Z,1009.75
2019-01-19T11:19:44.791Z,1009.81
2019-01-19T11:20:44.759Z,1009.72
2019-01-19T11:21:44.732Z,1009.69
2019-01-19T11:22:44.738Z,1009.69
2019-01-19T11:23:44.781Z,1009.63
2019-01-19T11:24:44.726Z,1009.64
2019-01-19T11:25:44.694Z,1009.62
2019-01-19T11:26:44.682Z,1009.59
2019-01-19T11:27:44.677Z,1009.60
2019-01-19T11:28:45.056Z,1009.57
2019-01-19T11:29:44.691Z,1009.58
2019-01-19T11:30:44.639Z,1009.60
2019-01-19T11:31:44.677Z,1009.55
2019-01-19T11:32:44.637Z,1009.52
2019-01-19T11:33:44.662Z,1009.46
2019-01-19T11:34:44.614Z,1009.49
2019-01-19T11:35:44.619Z,1009.46
2019-01-19T11:36:44.570Z,1009.45
2019-01-19T11:37:44.652Z,1009.43
2019-01-19T11:38:44.561Z,1009.40
2019-01-19T11:39:44.600Z,1009.36
2019-01-19T11:40:44.538Z,1009.38
2019-01-19T11:41:44.569Z,1009.38
2019-01-19T11:42:44.523Z,1009.40
2019-01-19T11:43:44.508Z,1009.37
2019-01-19T11:44:45.539Z,1009.36
2019-01-19T11:45:44.490Z,1009.34
2019-01-19T11:46:44.467Z,1009.33
2019-01-19T11:47:44.453Z,1009.30
2019-01-19T11:48:44.449Z,1009.29
2019-01-19T11:49:44.473Z,1009.22
2019-01-19T11:50:44.426Z,1009.29
2019-01-19T11:51:44.409Z,1009.25
2019-01-19T11:52:44.406Z,1009.25
2019-01-19T11:53:44.409Z,1009.24
2019-01-19T11:54:44.648Z,1009.20
2019-01-19T11:55:46.008Z,1009.18
2019-01-19T11:56:44.359Z,1009.16
2019-01-19T11:57:44.343Z,1009.18
2019-01-19T11:58:44.337Z,1009.12
2019-01-19T11:59:44.343Z,1009.13
2019-01-19T12:00:44.319Z,1009.14
